createdAt,value
2022-09-12T00:00:07.741Z,95.92
2022-09-12T00:01:07.709Z,95.92
2022-09-12T00:02:07.646Z,95.92
2022-09-12T00:03:07.618Z,95.92
2022-09-12T00:04:07.646Z,95.92
2022-09-12T00:05:07.589Z,95.92
2022-09-12T00:06:07.643Z,96.02
2022-09-12T00:07:07.576Z,96.02
2022-09-12T00:08:07.601Z,96.02
2022-09-12T00:09:07.541Z,96.02
2022-09-12T00:10:07.549Z,96.23
2022-09-12T00:11:07.548Z,96.33
2022-09-12T00:12:07.621Z,96.33
2022-09-12T00:13:07.514Z,96.33
2022-09-12T00:14:07.552Z,96.47
2022-09-12T00:15:07.492Z,96.47
2022-09-12T00:16:07.562Z,96.37
2022-09-12T00:17:07.473Z,96.47
2022-09-12T00:18:07.462Z,96.58
2022-09-12T00:19:07.443Z,96.58
2022-09-12T00:20:07.568Z,96.58
2022-09-12T00:21:07.413Z,96.58
2022-09-12T00:22:07.444Z,96.58
2022-09-12T00:23:07.412Z,96.58
2022-09-12T00:24:07.496Z,96.58
2022-09-12T00:25:07.373Z,96.58
2022-09-12T00:26:07.444Z,96.58
2022-09-12T00:27:07.353Z,96.47
2022-09-12T00:28:07.511Z,96.47
2022-09-12T00:29:07.335Z,96.47
2022-09-12T00:30:07.597Z,96.52
2022-09-12T00:31:07.311Z,96.52
2022-09-12T00:32:07.515Z,96.52
2022-09-12T00:33:07.288Z,96.52
2022-09-12T00:34:07.365Z,96.52
2022-09-12T00:35:07.262Z,96.52
2022-09-12T00:36:07.284Z,96.52
2022-09-12T00:37:07.236Z,96.62
2022-09-12T00:38:07.364Z,96.62
2022-09-12T00:39:07.226Z,96.72
2022-09-12T00:40:07.418Z,96.72
2022-09-12T00:41:07.197Z,96.83
2022-09-12T00:42:07.408Z,96.92
2022-09-12T00:43:07.168Z,97.03
2022-09-12T00:44:07.543Z,97.03
2022-09-12T00:45:07.149Z,97.13
2022-09-12T00:46:07.477Z,97.44
2022-09-12T00:47:07.127Z,97.53
2022-09-12T00:48:07.261Z,97.64
2022-09-12T00:49:07.119Z,97.74
2022-09-12T00:50:07.212Z,97.74
2022-09-12T00:51:07.083Z,97.84
2022-09-12T00:52:07.141Z,97.84
2022-09-12T00:53:07.058Z,97.84
2022-09-12T00:54:07.103Z,97.94
2022-09-12T00:55:07.048Z,97.84
2022-09-12T00:56:07.061Z,97.84
2022-09-12T00:57:07.032Z,97.84
2022-09-12T00:58:07.030Z,97.84
2022-09-12T00:59:07.003Z,97.94
2022-09-12T01:00:07.052Z,97.84
2022-09-12T01:01:07.020Z,97.84
2022-09-12T01:02:07.142Z,97.74
2022-09-12T01:03:06.970Z,97.74
2022-09-12T01:04:07.380Z,97.69
2022-09-12T01:05:06.962Z,97.69
2022-09-12T01:06:07.023Z,97.69
2022-09-12T01:07:06.912Z,97.69
2022-09-12T01:08:06.967Z,97.69
2022-09-12T01:09:06.893Z,97.69
2022-09-12T01:10:06.893Z,97.69
2022-09-12T01:11:06.897Z,97.69
2022-09-12T01:12:06.913Z,97.58
2022-09-12T01:13:06.854Z,97.58
2022-09-12T01:14:07.001Z,97.58
2022-09-12T01:15:06.831Z,97.48
2022-09-12T01:16:06.951Z,97.58
2022-09-12T01:17:06.965Z,97.58
2022-09-12T01:18:06.933Z,97.58
2022-09-12T01:19:06.834Z,97.63
2022-09-12T01:20:06.825Z,97.63
2022-09-12T01:21:06.769Z,97.63
2022-09-12T01:22:06.785Z,97.53
2022-09-12T01:23:06.743Z,97.53
2022-09-12T01:24:06.878Z,97.53
2022-09-12T01:25:06.727Z,97.53
2022-09-12T01:26:06.698Z,97.53
2022-09-12T01:27:06.686Z,97.63
2022-09-12T01:28:06.760Z,97.63
2022-09-12T01:29:06.679Z,97.63
2022-09-12T01:30:06.729Z,97.63
2022-09-12T01:31:06.655Z,97.63
2022-09-12T01:32:06.659Z,97.63
2022-09-12T01:33:06.627Z,97.63
2022-09-12T01:34:06.649Z,97.63
2022-09-12T01:35:06.608Z,97.63
2022-09-12T01:36:06.657Z,97.67
2022-09-12T01:37:06.579Z,97.67
2022-09-12T01:38:06.600Z,97.57
2022-09-12T01:39:06.560Z,97.57
2022-09-12T01:40:06.645Z,97.57
2022-09-12T01:41:06.537Z,97.57
2022-09-12T01:42:06.602Z,97.67
2022-09-12T01:43:06.510Z,97.67
2022-09-12T01:44:06.530Z,97.78
2022-09-12T01:45:06.510Z,97.78
2022-09-12T01:46:06.606Z,97.78
2022-09-12T01:47:06.471Z,97.88
2022-09-12T01:48:06.509Z,97.98
2022-09-12T01:49:06.452Z,98.08
2022-09-12T01:50:06.534Z,98.08
2022-09-12T01:51:06.433Z,98.18
2022-09-12T01:52:06.512Z,98.28
2022-09-12T01:53:06.403Z,98.39
2022-09-12T01:54:06.499Z,98.49
2022-09-12T01:55:09.620Z,98.49
2022-09-12T01:56:06.476Z,98.49
2022-09-12T01:57:06.353Z,98.49
2022-09-12T01:58:06.402Z,98.59
2022-09-12T01:59:06.343Z,98.59
2022-09-12T02:00:06.342Z,98.69
2022-09-12T02:01:06.434Z,98.69
2022-09-12T02:02:06.446Z,98.79
2022-09-12T02:03:06.293Z,98.90
2022-09-12T02:04:06.383Z,98.90
2022-09-12T02:05:06.273Z,99.00
2022-09-12T02:06:06.264Z,99.00
2022-09-12T02:07:06.355Z,99.00
2022-09-12T02:08:06.246Z,99.10
2022-09-12T02:09:06.245Z,99.10
2022-09-12T02:10:06.254Z,99.05
2022-09-12T02:11:06.203Z,99.05
2022-09-12T02:12:06.296Z,99.05
2022-09-12T02:13:06.178Z,99.05
2022-09-12T02:14:06.185Z,99.16
2022-09-12T02:15:06.165Z,99.16
2022-09-12T02:16:06.323Z,99.16
2022-09-12T02:17:06.146Z,99.16
2022-09-12T02:18:06.135Z,99.16
2022-09-12T02:19:06.109Z,99.16
2022-09-12T02:20:06.118Z,99.16
2022-09-12T02:21:06.088Z,99.16
2022-09-12T02:22:06.077Z,99.16
2022-09-12T02:23:06.069Z,99.16
2022-09-12T02:24:06.096Z,99.16
2022-09-12T02:25:06.056Z,99.16
2022-09-12T02:26:06.040Z,99.16
2022-09-12T02:27:06.027Z,99.26
2022-09-12T02:28:06.119Z,99.26
2022-09-12T02:29:05.999Z,99.26
2022-09-12T02:30:06.050Z,99.26
2022-09-12T02:31:06.038Z,99.26
2022-09-12T02:32:06.008Z,99.26
2022-09-12T02:33:05.959Z,99.26
2022-09-12T02:34:05.956Z,99.26
2022-09-12T02:35:05.951Z,99.26
2022-09-12T02:36:05.937Z,99.26
2022-09-12T02:37:05.911Z,99.26
2022-09-12T02:38:05.911Z,99.26
2022-09-12T02:39:05.899Z,99.26
2022-09-12T02:40:05.924Z,99.26
2022-09-12T02:41:06.012Z,99.26
2022-09-12T02:42:05.932Z,99.26
2022-09-12T02:43:05.846Z,99.26
2022-09-12T02:44:05.923Z,99.26
2022-09-12T02:45:05.842Z,99.26
2022-09-12T02:46:05.848Z,99.26
2022-09-12T02:47:05.813Z,99.26
2022-09-12T02:48:05.800Z,99.26
2022-09-12T02:49:05.781Z,99.26
2022-09-12T02:50:05.865Z,99.26
2022-09-12T02:51:05.768Z,99.36
2022-09-12T02:52:05.784Z,99.26
2022-09-12T02:53:05.745Z,99.36
2022-09-12T02:54:05.826Z,99.36
2022-09-12T02:55:05.731Z,99.36
2022-09-12T02:56:05.889Z,99.36
2022-09-12T02:57:05.696Z,99.36
2022-09-12T02:58:05.692Z,99.36
2022-09-12T02:59:05.677Z,99.36
2022-09-12T03:00:05.677Z,99.36
2022-09-12T03:01:05.675Z,99.36
2022-09-12T03:02:05.698Z,99.36
2022-09-12T03:03:05.626Z,99.36
2022-09-12T03:04:05.733Z,99.41
2022-09-12T03:05:05.626Z,99.41
2022-09-12T03:06:05.877Z,99.41
2022-09-12T03:07:05.587Z,99.41
2022-09-12T03:08:05.619Z,99.41
2022-09-12T03:09:05.570Z,99.41
2022-09-12T03:10:05.558Z,99.41
2022-09-12T03:11:05.538Z,99.41
2022-09-12T03:12:05.540Z,99.41
2022-09-12T03:13:05.518Z,99.41
2022-09-12T03:14:05.530Z,99.41
2022-09-12T03:15:05.521Z,99.41
2022-09-12T03:16:05.516Z,99.30
2022-09-12T03:17:05.479Z,99.30
2022-09-12T03:18:05.472Z,99.30
2022-09-12T03:19:05.456Z,99.41
2022-09-12T03:20:05.569Z,99.30
2022-09-12T03:21:05.434Z,99.30
2022-09-12T03:22:05.430Z,99.41
2022-09-12T03:23:05.411Z,99.41
2022-09-12T03:24:05.401Z,99.41
2022-09-12T03:25:05.390Z,99.30
2022-09-12T03:26:05.399Z,99.30
2022-09-12T03:27:05.365Z,99.30
2022-09-12T03:28:05.416Z,99.30
2022-09-12T03:29:05.352Z,99.30
2022-09-12T03:30:05.343Z,99.30
2022-09-12T03:31:05.353Z,99.30
2022-09-12T03:32:05.323Z,99.30
2022-09-12T03:33:05.303Z,99.30
2022-09-12T03:34:05.368Z,99.45
2022-09-12T03:35:05.305Z,99.41
2022-09-12T03:36:05.394Z,99.45
2022-09-12T03:37:05.256Z,99.45
2022-09-12T03:38:05.310Z,99.45
2022-09-12T03:39:05.242Z,99.45
2022-09-12T03:40:05.294Z,99.45
2022-09-12T03:41:05.215Z,99.45
2022-09-12T03:42:05.201Z,99.45
2022-09-12T03:43:05.192Z,99.55
2022-09-12T03:44:05.291Z,99.55
2022-09-12T03:45:05.175Z,99.55
2022-09-12T03:46:05.327Z,99.55
2022-09-12T03:47:08.082Z,99.55
2022-09-12T03:48:06.201Z,99.66
2022-09-12T03:49:05.125Z,99.66
2022-09-12T03:50:05.145Z,99.66
2022-09-12T03:51:05.116Z,99.76
2022-09-12T03:52:05.153Z,99.76
2022-09-12T03:53:05.087Z,99.76
2022-09-12T03:54:05.067Z,99.76
2022-09-12T03:55:05.058Z,99.76
2022-09-12T03:56:05.067Z,99.76
2022-09-12T03:57:05.037Z,99.76
2022-09-12T03:58:05.037Z,99.76
2022-09-12T03:59:05.018Z,99.76
2022-09-12T04:00:05.012Z,99.76
2022-09-12T04:01:05.040Z,99.76
2022-09-12T04:02:05.341Z,99.76
2022-09-12T04:03:04.988Z,99.86
2022-09-12T04:04:04.959Z,99.86
2022-09-12T04:05:04.949Z,99.86
2022-09-12T04:06:04.993Z,99.86
2022-09-12T04:07:04.939Z,99.86
2022-09-12T04:08:04.942Z,99.86
2022-09-12T04:09:04.908Z,99.86
2022-09-12T04:10:04.889Z,99.86
2022-09-12T04:11:04.909Z,99.86
2022-09-12T04:12:04.874Z,99.86
2022-09-12T04:13:04.902Z,99.86
2022-09-12T04:14:04.849Z,99.86
2022-09-12T04:15:04.841Z,99.86
2022-09-12T04:16:04.848Z,99.86
2022-09-12T04:17:04.821Z,99.96
2022-09-12T04:18:06.140Z,99.86
2022-09-12T04:19:04.793Z,99.86
2022-09-12T04:20:04.795Z,99.86
2022-09-12T04:21:04.832Z,99.96
2022-09-12T04:22:04.873Z,99.86
2022-09-12T04:23:04.763Z,99.86
2022-09-12T04:24:04.768Z,99.96
2022-09-12T04:25:04.725Z,99.96
2022-09-12T04:26:05.014Z,99.96
2022-09-12T04:27:07.746Z,99.96
2022-09-12T04:28:04.889Z,99.96
2022-09-12T04:29:04.705Z,99.96
2022-09-12T04:30:04.730Z,99.99
2022-09-12T04:31:04.744Z,99.99
2022-09-12T04:32:04.759Z,99.99
2022-09-12T04:33:08.018Z,99.99
2022-09-12T04:34:04.633Z,99.99
2022-09-12T04:35:04.625Z,99.99
2022-09-12T04:36:04.624Z,99.99
2022-09-12T04:37:04.776Z,99.99
2022-09-12T04:38:04.677Z,99.99
2022-09-12T04:39:04.585Z,99.99
2022-09-12T04:40:04.762Z,99.99
2022-09-12T04:41:04.575Z,99.99
2022-09-12T04:42:04.537Z,99.99
2022-09-12T04:43:04.536Z,99.99
2022-09-12T04:44:04.517Z,99.99
2022-09-12T04:45:04.518Z,99.99
2022-09-12T04:46:04.610Z,99.99
2022-09-12T04:47:04.498Z,99.99
2022-09-12T04:48:04.503Z,99.99
2022-09-12T04:49:04.465Z,99.99
2022-09-12T04:50:04.475Z,99.99
2022-09-12T04:51:04.459Z,99.99
2022-09-12T04:52:04.429Z,99.99
2022-09-12T04:53:04.429Z,99.99
2022-09-12T04:54:04.410Z,99.99
2022-09-12T04:55:04.399Z,99.99
2022-09-12T04:56:04.468Z,99.99
2022-09-12T04:57:04.379Z,99.99
2022-09-12T04:58:04.391Z,99.99
2022-09-12T04:59:04.375Z,99.99
2022-09-12T05:00:07.186Z,99.99
2022-09-12T05:01:04.396Z,99.99
2022-09-12T05:02:04.379Z,99.99
2022-09-12T05:03:04.329Z,99.99
2022-09-12T05:04:04.326Z,99.99
2022-09-12T05:05:04.302Z,99.99
2022-09-12T05:06:04.302Z,99.99
2022-09-12T05:07:04.314Z,99.99
2022-09-12T05:08:04.261Z,99.99
2022-09-12T05:09:04.252Z,99.99
2022-09-12T05:10:04.286Z,99.99
2022-09-12T05:11:04.233Z,99.99
2022-09-12T05:12:05.532Z,99.99
2022-09-12T05:13:04.207Z,99.99
2022-09-12T05:14:04.216Z,99.99
2022-09-12T05:15:04.184Z,99.99
2022-09-12T05:16:04.180Z,99.99
2022-09-12T05:17:04.234Z,99.99
2022-09-12T05:18:04.268Z,99.99
2022-09-12T05:19:04.136Z,99.99
2022-09-12T05:20:04.138Z,99.99
2022-09-12T05:21:04.126Z,99.99
2022-09-12T05:22:04.152Z,99.99
2022-09-12T05:23:04.095Z,99.99
2022-09-12T05:24:04.078Z,99.99
2022-09-12T05:25:04.075Z,99.99
2022-09-12T05:26:04.177Z,99.99
2022-09-12T05:27:04.055Z,99.99
2022-09-12T05:28:04.034Z,99.99
2022-09-12T05:29:04.036Z,99.99
2022-09-12T05:30:04.145Z,99.99
2022-09-12T05:31:04.038Z,99.99
2022-09-12T05:32:04.002Z,99.99
2022-09-12T05:33:04.001Z,99.99
2022-09-12T05:34:03.967Z,99.99
2022-09-12T05:35:03.959Z,99.99
2022-09-12T05:36:03.957Z,99.99
2022-09-12T05:37:03.946Z,99.99
2022-09-12T05:38:03.933Z,99.99
2022-09-12T05:39:03.928Z,99.99
2022-09-12T05:40:03.950Z,99.99
2022-09-12T05:41:03.898Z,99.99
2022-09-12T05:42:03.896Z,99.99
2022-09-12T05:43:03.870Z,99.99
2022-09-12T05:44:03.946Z,99.99
2022-09-12T05:45:03.852Z,99.99
2022-09-12T05:46:04.089Z,99.99
2022-09-12T05:47:03.950Z,99.99
2022-09-12T05:48:03.820Z,99.99
2022-09-12T05:49:03.811Z,99.99
2022-09-12T05:50:03.842Z,99.99
2022-09-12T05:51:03.790Z,99.99
2022-09-12T05:52:03.832Z,99.99
2022-09-12T05:53:03.761Z,99.99
2022-09-12T05:54:03.829Z,99.99
2022-09-12T05:55:03.741Z,99.99
2022-09-12T05:56:03.745Z,99.99
2022-09-12T05:57:03.736Z,99.99
2022-09-12T05:58:03.737Z,99.99
2022-09-12T05:59:03.703Z,99.99
2022-09-12T06:00:03.784Z,99.99
2022-09-12T06:01:03.691Z,99.99
2022-09-12T06:02:03.753Z,99.99
2022-09-12T06:03:03.653Z,99.99
2022-09-12T06:04:03.635Z,99.99
2022-09-12T06:05:03.633Z,99.99
2022-09-12T06:06:03.685Z,99.99
2022-09-12T06:07:03.624Z,99.99
2022-09-12T06:08:03.669Z,99.99
2022-09-12T06:09:03.627Z,99.99
2022-09-12T06:10:03.595Z,99.99
2022-09-12T06:11:03.566Z,99.99
2022-09-12T06:12:03.576Z,99.99
2022-09-12T06:13:03.540Z,99.99
2022-09-12T06:14:03.531Z,99.99
2022-09-12T06:15:03.517Z,99.99
2022-09-12T06:16:03.518Z,99.99
2022-09-12T06:17:03.664Z,99.99
2022-09-12T06:18:03.524Z,99.99
2022-09-12T06:19:03.489Z,99.99
2022-09-12T06:20:03.465Z,99.99
2022-09-12T06:21:03.457Z,99.99
2022-09-12T06:22:03.485Z,99.99
2022-09-12T06:23:03.428Z,99.99
2022-09-12T06:24:03.459Z,99.99
2022-09-12T06:25:03.552Z,99.99
2022-09-12T06:26:03.411Z,99.99
2022-09-12T06:27:03.401Z,99.99
2022-09-12T06:28:03.387Z,99.99
2022-09-12T06:29:03.363Z,99.99
2022-09-12T06:30:03.382Z,99.99
2022-09-12T06:31:03.380Z,99.99
2022-09-12T06:32:03.344Z,99.99
2022-09-12T06:33:03.352Z,99.85
2022-09-12T06:34:03.320Z,99.74
2022-09-12T06:35:03.313Z,99.44
2022-09-12T06:36:03.293Z,99.13
2022-09-12T06:37:03.281Z,99.04
2022-09-12T06:38:03.309Z,98.83
2022-09-12T06:39:03.271Z,98.68
2022-09-12T06:40:03.344Z,98.48
2022-09-12T06:41:03.366Z,98.38
2022-09-12T06:42:03.572Z,98.38
2022-09-12T06:43:03.223Z,98.33
2022-09-12T06:44:03.194Z,98.54
2022-09-12T06:45:03.194Z,98.43
2022-09-12T06:46:03.233Z,98.59
2022-09-12T06:47:03.165Z,98.39
2022-09-12T06:48:03.482Z,98.18
2022-09-12T06:49:03.245Z,97.88
2022-09-12T06:50:03.135Z,97.33
2022-09-12T06:51:03.346Z,96.82
2022-09-12T06:52:03.125Z,96.42
2022-09-12T06:53:03.117Z,96.11
2022-09-12T06:54:03.095Z,95.20
2022-09-12T06:55:03.079Z,94.55
2022-09-12T06:56:03.067Z,94.24
2022-09-12T06:57:03.061Z,94.14
2022-09-12T06:58:03.088Z,94.20
2022-09-12T06:59:03.128Z,94.10
2022-09-12T07:00:03.028Z,93.70
2022-09-12T07:01:03.106Z,92.68
2022-09-12T07:02:03.018Z,91.93
2022-09-12T07:03:03.001Z,91.32
2022-09-12T07:04:02.998Z,90.41
2022-09-12T07:05:02.962Z,90.01
2022-09-12T07:06:03.081Z,89.46
2022-09-12T07:07:02.941Z,89.26
2022-09-12T07:08:02.953Z,89.06
2022-09-12T07:09:02.930Z,88.85
2022-09-12T07:10:02.915Z,89.01
2022-09-12T07:11:02.903Z,89.01
2022-09-12T07:12:02.896Z,89.12
2022-09-12T07:13:02.883Z,89.22
2022-09-12T07:14:02.939Z,88.57
2022-09-12T07:15:02.857Z,88.17
2022-09-12T07:16:02.852Z,88.06
2022-09-12T07:17:02.882Z,86.45
2022-09-12T07:18:02.822Z,86.45
2022-09-12T07:19:02.814Z,87.46
2022-09-12T07:20:02.847Z,88.17
2022-09-12T07:21:02.789Z,87.60
2022-09-12T07:22:02.788Z,87.70
2022-09-12T07:23:02.853Z,88.45
2022-09-12T07:24:02.797Z,88.65
2022-09-12T07:25:02.742Z,88.75
2022-09-12T07:26:02.761Z,88.96
2022-09-12T07:27:02.734Z,88.45
2022-09-12T07:28:02.739Z,89.06
2022-09-12T07:30:03.941Z,90.07
2022-09-12T07:31:02.747Z,89.36
2022-09-12T07:32:02.718Z,89.76
2022-09-12T07:33:02.662Z,89.36
2022-09-12T07:34:02.723Z,89.56
2022-09-12T07:35:02.645Z,89.12
2022-09-12T07:36:02.641Z,89.01
2022-09-12T07:37:02.621Z,88.01
2022-09-12T07:38:02.596Z,88.21
2022-09-12T07:39:02.612Z,88.61
2022-09-12T07:40:02.617Z,88.92
2022-09-12T07:41:02.573Z,89.42
2022-09-12T07:42:02.584Z,89.28
2022-09-12T07:43:02.550Z,88.57
2022-09-12T07:44:02.533Z,88.06
2022-09-12T07:45:02.537Z,87.92
2022-09-12T07:46:02.674Z,87.78
2022-09-12T07:47:02.516Z,86.97
2022-09-12T07:48:02.521Z,86.53
2022-09-12T07:49:02.482Z,86.33
2022-09-12T07:50:02.540Z,85.52
2022-09-12T07:51:02.458Z,85.48
2022-09-12T07:52:02.484Z,85.17
2022-09-12T07:53:02.439Z,84.17
2022-09-12T07:54:02.452Z,83.46
2022-09-12T07:55:02.410Z,83.93
2022-09-12T07:56:02.416Z,83.62
2022-09-12T07:57:02.411Z,83.18
2022-09-12T07:58:02.391Z,82.54
2022-09-12T07:59:02.383Z,82.30
2022-09-12T08:00:02.382Z,80.29
2022-09-12T08:01:02.441Z,80.85
2022-09-12T08:02:02.522Z,80.95
2022-09-12T08:03:02.332Z,78.80
2022-09-12T08:04:02.579Z,79.10
2022-09-12T08:05:02.324Z,78.80
2022-09-12T08:06:02.296Z,77.50
2022-09-12T08:07:02.293Z,76.79
2022-09-12T08:08:02.296Z,77.80
2022-09-12T08:09:02.265Z,79.00
2022-09-12T08:10:02.258Z,78.30
2022-09-12T08:11:02.254Z,77.96
2022-09-12T08:12:02.284Z,77.36
2022-09-12T08:13:02.217Z,77.46
2022-09-12T08:14:02.209Z,78.06
2022-09-12T08:15:02.198Z,78.06
2022-09-12T08:16:02.285Z,77.26
2022-09-12T08:17:02.197Z,77.16
2022-09-12T08:18:02.219Z,78.56
2022-09-12T08:19:02.162Z,78.77
2022-09-12T08:20:02.141Z,79.17
2022-09-12T08:21:02.141Z,77.96
2022-09-12T08:22:02.166Z,77.26
2022-09-12T08:23:02.131Z,77.76
2022-09-12T08:24:02.103Z,78.10
2022-09-12T08:25:02.102Z,78.50
2022-09-12T08:26:05.757Z,77.80
2022-09-12T08:27:02.083Z,78.97
2022-09-12T08:28:02.082Z,78.36
2022-09-12T08:29:02.065Z,78.12
2022-09-12T08:30:02.146Z,77.52
2022-09-12T08:31:02.061Z,76.52
2022-09-12T08:32:02.026Z,77.32
2022-09-12T08:33:02.005Z,76.82
2022-09-12T08:34:02.004Z,76.92
2022-09-12T08:35:01.985Z,77.62
2022-09-12T08:36:01.968Z,79.33
2022-09-12T08:37:01.971Z,76.52
2022-09-12T08:38:01.959Z,76.92
2022-09-12T08:39:01.947Z,76.12
2022-09-12T08:40:01.978Z,77.96
2022-09-12T08:41:01.948Z,77.46
2022-09-12T08:42:01.972Z,78.06
2022-09-12T08:43:01.890Z,77.16
2022-09-12T08:44:01.890Z,77.36
2022-09-12T08:45:01.907Z,78.16
2022-09-12T08:46:01.900Z,78.86
2022-09-12T08:47:01.872Z,78.66
2022-09-12T08:48:01.850Z,78.22
2022-09-12T08:49:01.932Z,76.18
2022-09-12T08:50:01.815Z,75.64
2022-09-12T08:51:01.810Z,74.71
2022-09-12T08:52:01.964Z,73.97
2022-09-12T08:53:01.795Z,74.07
2022-09-12T08:54:01.845Z,74.67
2022-09-12T08:55:01.774Z,73.13
2022-09-12T08:56:01.779Z,73.13
2022-09-12T08:57:01.759Z,72.56
2022-09-12T08:58:01.814Z,72.77
2022-09-12T08:59:01.727Z,72.86
2022-09-12T09:00:01.727Z,74.07
2022-09-12T09:01:01.715Z,73.47
2022-09-12T09:02:01.769Z,72.36
2022-09-12T09:03:01.679Z,73.10
2022-09-12T09:04:01.735Z,75.31
2022-09-12T09:05:01.664Z,74.14
2022-09-12T09:06:01.668Z,74.04
2022-09-12T09:07:01.631Z,74.44
2022-09-12T09:08:01.642Z,74.84
2022-09-12T09:09:01.622Z,76.54
2022-09-12T09:10:01.633Z,73.94
2022-09-12T09:11:01.614Z,74.04
2022-09-12T09:12:01.593Z,74.24
2022-09-12T09:13:01.574Z,74.40
2022-09-12T09:14:04.991Z,73.00
2022-09-12T09:15:01.558Z,72.77
2022-09-12T09:16:01.623Z,72.33
2022-09-12T09:17:01.540Z,71.03
2022-09-12T09:18:01.523Z,71.50
2022-09-12T09:19:01.517Z,71.76
2022-09-12T09:20:01.498Z,71.36
2022-09-12T09:21:01.518Z,72.03
2022-09-12T09:22:01.497Z,69.19
2022-09-12T09:23:01.486Z,69.09
2022-09-12T09:24:01.522Z,70.56
2022-09-12T09:25:01.448Z,69.02
2022-09-12T09:26:01.448Z,68.03
2022-09-12T09:27:01.444Z,68.23
2022-09-12T09:28:01.506Z,69.93
2022-09-12T09:29:01.414Z,67.93
2022-09-12T09:30:01.392Z,67.03
2022-09-12T09:31:01.419Z,69.06
2022-09-12T09:32:01.394Z,68.56
2022-09-12T09:33:01.380Z,69.06
2022-09-12T09:34:01.354Z,67.16
2022-09-12T09:35:01.348Z,68.96
2022-09-12T09:36:01.337Z,69.26
2022-09-12T09:37:08.389Z,68.16
2022-09-12T09:38:01.314Z,69.23
2022-09-12T09:39:01.299Z,69.13
2022-09-12T09:40:01.326Z,66.63
2022-09-12T09:41:01.273Z,67.72
2022-09-12T09:42:01.290Z,67.63
2022-09-12T09:43:01.283Z,68.23
2022-09-12T09:44:01.292Z,68.29
2022-09-12T09:45:01.244Z,66.17
2022-09-12T09:46:01.263Z,66.86
2022-09-12T09:47:01.237Z,65.87
2022-09-12T09:48:01.267Z,65.47
2022-09-12T09:49:02.139Z,65.90
2022-09-12T09:50:01.207Z,67.07
2022-09-12T09:51:01.187Z,65.37
2022-09-12T09:52:01.176Z,66.66
2022-09-12T09:53:01.159Z,64.17
2022-09-12T09:54:01.170Z,64.67
2022-09-12T09:55:01.138Z,65.77
2022-09-12T09:56:01.171Z,64.07
2022-09-12T09:57:01.124Z,64.87
2022-09-12T09:58:01.109Z,66.96
2022-09-12T09:59:01.123Z,65.77
2022-09-12T10:00:01.103Z,64.07
2022-09-12T10:01:01.219Z,64.47
2022-09-12T10:02:01.105Z,65.77
2022-09-12T10:03:01.123Z,65.53
2022-09-12T10:04:01.065Z,65.04
2022-09-12T10:05:01.047Z,64.24
2022-09-12T10:06:01.214Z,63.61
2022-09-12T10:07:01.026Z,65.11
2022-09-12T10:08:01.058Z,64.48
2022-09-12T10:09:01.010Z,63.38
2022-09-12T10:10:01.006Z,62.35
2022-09-12T10:11:00.998Z,61.36
2022-09-12T10:12:00.979Z,62.35
2022-09-12T10:13:00.971Z,62.95
2022-09-12T10:14:01.119Z,62.26
2022-09-12T10:15:00.950Z,61.06
2022-09-12T10:16:01.008Z,63.05
2022-09-12T10:17:00.929Z,62.26
2022-09-12T10:18:00.925Z,61.76
2022-09-12T10:19:00.909Z,61.96
2022-09-12T10:20:19.802Z,61.43
2022-09-12T10:21:01.914Z,60.66
2022-09-12T10:22:00.923Z,62.26
2022-09-12T10:23:00.863Z,63.05
2022-09-12T10:24:00.867Z,61.06
2022-09-12T10:25:00.844Z,62.95
2022-09-12T10:26:00.862Z,61.25
2022-09-12T10:27:00.825Z,61.55
2022-09-12T10:28:00.821Z,60.16
2022-09-12T10:29:00.816Z,60.03
2022-09-12T10:30:00.808Z,61.33
2022-09-12T10:31:00.853Z,59.53
2022-09-12T10:32:00.779Z,59.14
2022-09-12T10:33:00.760Z,60.96
2022-09-12T10:34:00.768Z,61.06
2022-09-12T10:35:00.752Z,59.77
2022-09-12T10:36:00.760Z,62.45
2022-09-12T10:37:00.722Z,59.56
2022-09-12T10:38:00.719Z,59.23
2022-09-12T10:39:00.722Z,59.94
2022-09-12T10:40:00.740Z,59.01
2022-09-12T10:41:00.706Z,59.11
2022-09-12T10:42:00.683Z,58.41
2022-09-12T10:43:00.679Z,58.41
2022-09-12T10:44:00.670Z,58.51
2022-09-12T10:45:00.657Z,58.31
2022-09-12T10:46:00.687Z,58.09
2022-09-12T10:47:00.636Z,60.87
2022-09-12T10:48:04.147Z,58.45
2022-09-12T10:49:01.617Z,57.36
2022-09-12T10:50:00.620Z,57.26
2022-09-12T10:51:00.610Z,57.09
2022-09-12T10:52:00.581Z,59.98
2022-09-12T10:53:00.598Z,57.02
2022-09-12T10:54:00.560Z,57.42
2022-09-12T10:55:00.561Z,60.40
2022-09-12T10:56:00.561Z,60.11
2022-09-12T10:57:00.551Z,58.98
2022-09-12T10:58:00.523Z,56.89
2022-09-12T10:59:00.544Z,58.88
2022-09-12T11:00:00.512Z,56.49
2022-09-12T11:01:00.554Z,59.38
2022-09-12T11:02:00.593Z,58.58
2022-09-12T11:03:00.485Z,58.48
2022-09-12T11:04:00.473Z,58.09
2022-09-12T11:05:00.486Z,57.99
2022-09-12T11:06:00.468Z,57.79
2022-09-12T11:07:00.445Z,57.19
2022-09-12T11:08:00.441Z,57.71
2022-09-12T11:09:00.428Z,57.22
2022-09-12T11:10:00.408Z,57.71
2022-09-12T11:11:00.426Z,58.61
2022-09-12T11:12:00.398Z,57.62
2022-09-12T11:13:00.392Z,59.01
2022-09-12T11:14:00.384Z,57.71
2022-09-12T11:15:00.372Z,57.69
2022-09-12T11:16:00.453Z,57.19
2022-09-12T11:17:00.352Z,56.10
2022-09-12T11:18:00.332Z,56.99
2022-09-12T11:19:00.332Z,57.19
2022-09-12T11:20:00.323Z,58.98
2022-09-12T11:21:00.324Z,58.18
2022-09-12T11:22:00.306Z,57.56
2022-09-12T11:23:00.296Z,56.87
2022-09-12T11:24:00.285Z,55.50
2022-09-12T11:25:00.276Z,56.59
2022-09-12T11:26:00.270Z,56.99
2022-09-12T11:27:00.277Z,56.49
2022-09-12T11:28:00.245Z,56.59
2022-09-12T11:29:00.379Z,56.17
2022-09-12T11:30:00.230Z,56.67
2022-09-12T11:31:00.300Z,57.96
2022-09-12T11:32:00.285Z,58.23
2022-09-12T11:33:00.292Z,56.54
2022-09-12T11:34:00.188Z,59.00
2022-09-12T11:35:00.188Z,57.11
2022-09-12T11:36:00.170Z,55.42
2022-09-12T11:37:00.221Z,56.59
2022-09-12T11:38:00.153Z,53.31
2022-09-12T11:39:00.151Z,54.80
2022-09-12T11:40:00.166Z,54.72
2022-09-12T11:41:00.126Z,54.23
2022-09-12T11:42:00.195Z,54.72
2022-09-12T11:43:00.104Z,53.93
2022-09-12T11:44:00.096Z,55.35
2022-09-12T11:45:00.087Z,55.74
2022-09-12T11:46:00.123Z,54.38
2022-09-12T11:47:00.077Z,55.70
2022-09-12T11:48:00.061Z,57.19
2022-09-12T11:49:00.060Z,54.78
2022-09-12T11:50:00.039Z,55.47
2022-09-12T11:51:00.032Z,54.78
2022-09-12T11:52:00.054Z,54.38
2022-09-12T11:53:00.019Z,54.97
2022-09-12T11:54:00.029Z,54.65
2022-09-12T11:54:59.990Z,53.36
2022-09-12T11:55:59.992Z,53.28
2022-09-12T11:56:59.972Z,54.88
2022-09-12T11:57:59.963Z,53.76
2022-09-12T11:58:59.963Z,56.24
2022-09-12T11:59:59.963Z,55.22
2022-09-12T12:00:59.954Z,52.51
2022-09-12T12:02:00.058Z,52.61
2022-09-12T12:02:59.948Z,53.58
2022-09-12T12:03:59.949Z,54.08
2022-09-12T12:04:59.896Z,51.50
2022-09-12T12:05:59.907Z,51.10
2022-09-12T12:06:59.884Z,52.31
2022-09-12T12:07:59.918Z,52.61
2022-09-12T12:08:59.869Z,50.63
2022-09-12T12:09:59.859Z,53.23
2022-09-12T12:10:59.890Z,52.34
2022-09-12T12:11:59.828Z,50.45
2022-09-12T12:12:59.829Z,51.84
2022-09-12T12:13:59.821Z,52.22
2022-09-12T12:14:59.811Z,50.13
2022-09-12T12:15:59.825Z,49.63
2022-09-12T12:16:59.785Z,51.32
2022-09-12T12:17:59.773Z,51.75
2022-09-12T12:18:59.764Z,51.95
2022-09-12T12:20:04.300Z,51.52
2022-09-12T12:21:00.775Z,51.60
2022-09-12T12:21:59.745Z,51.10
2022-09-12T12:22:59.732Z,53.26
2022-09-12T12:23:59.720Z,51.37
2022-09-12T12:24:59.707Z,48.60
2022-09-12T12:25:59.719Z,49.79
2022-09-12T12:26:59.697Z,49.91
2022-09-12T12:27:59.676Z,52.66
2022-09-12T12:28:59.689Z,49.86
2022-09-12T12:29:59.666Z,49.37
2022-09-12T12:30:59.724Z,48.97
2022-09-12T12:31:59.650Z,48.38
2022-09-12T12:32:59.674Z,49.37
2022-09-12T12:33:59.620Z,49.96
2022-09-12T12:34:59.651Z,48.97
2022-09-12T12:35:59.640Z,50.26
2022-09-12T12:37:03.198Z,49.27
2022-09-12T12:38:00.591Z,49.49
2022-09-12T12:38:59.594Z,51.77
2022-09-12T12:39:59.625Z,50.28
2022-09-12T12:40:59.576Z,51.54
2022-09-12T12:41:59.555Z,49.76
2022-09-12T12:42:59.534Z,50.95
2022-09-12T12:43:59.572Z,49.96
2022-09-12T12:44:59.546Z,52.34
2022-09-12T12:45:59.587Z,49.84
2022-09-12T12:46:59.527Z,50.26
2022-09-12T12:47:59.499Z,52.44
2022-09-12T12:48:59.479Z,51.84
2022-09-12T12:49:59.480Z,50.26
2022-09-12T12:50:59.478Z,51.75
2022-09-12T12:51:59.458Z,51.65
2022-09-12T12:52:59.439Z,50.16